Time;durP1;ratioP1;P1;durP2;ratioP2;P2;SDS_P1;SDS_P2;PMS_P1;PMS_P2;Temp;Humidity;BMP_temperature;BMP_pressure;BME280_temperature;BME280_humidity;BME280_pressure;Samples;Min_cycle;Max_cycle;Signal;HPM_P1;HPM_P2
2023/11/04 00:00:27;;;;;;;8.02;2.80;;;;;;;;;;5006059;28;20061;-82
2023/11/04 00:03:12;;;;;;;5.95;2.50;;;;;;;;;;5005069;28;20030;-83
2023/11/04 00:05:57;;;;;;;15.48;4.57;;;;;;;;;;5015586;28;20053;-83
2023/11/04 00:08:42;;;;;;;7.90;3.10;;;;;;;;;;5019489;28;20029;-82
2023/11/04 00:11:28;;;;;;;6.97;2.95;;;;;;;;;;5009956;28;20422;-82
2023/11/04 00:14:13;;;;;;;5.70;2.38;;;;;;;;;;5013966;28;20112;-81
2023/11/04 00:16:58;;;;;;;5.72;2.15;;;;;;;;;;5011128;28;20045;-82
2023/11/04 00:19:45;;;;;;;5.85;2.20;;;;;;;;;;5019386;28;20032;-81
2023/11/04 00:22:31;;;;;;;4.85;2.50;;;;;;;;;;5004210;28;20052;-81
2023/11/04 00:25:16;;;;;;;5.55;2.38;;;;;;;;;;5013086;28;20025;-82
2023/11/04 00:28:01;;;;;;;5.25;2.35;;;;;;;;;;5002608;28;20052;-82
2023/11/04 00:30:48;;;;;;;5.88;2.08;;;;;;;;;;5000770;28;20025;-82
2023/11/04 00:33:33;;;;;;;3.92;1.83;;;;;;;;;;5009261;28;20025;-81
2023/11/04 00:36:19;;;;;;;3.80;1.88;;;;;;;;;;5015295;28;20024;-82
2023/11/04 00:39:04;;;;;;;5.28;2.20;;;;;;;;;;5015602;28;20018;-82
2023/11/04 00:41:49;;;;;;;4.53;2.22;;;;;;;;;;5013197;28;20128;-81
2023/11/04 00:44:34;;;;;;;4.38;1.80;;;;;;;;;;5015979;28;20036;-81
2023/11/04 00:47:20;;;;;;;2.70;1.88;;;;;;;;;;5004587;28;20492;-82
2023/11/04 00:50:05;;;;;;;4.30;2.08;;;;;;;;;;5013296;28;20663;-82
2023/11/04 00:52:51;;;;;;;2.60;1.83;;;;;;;;;;5010148;28;20075;-81
2023/11/04 00:55:36;;;;;;;3.90;2.05;;;;;;;;;;5014681;28;20629;-82
2023/11/04 00:58:21;;;;;;;4.00;2.20;;;;;;;;;;5014778;28;20100;-83
2023/11/04 01:01:07;;;;;;;5.32;2.05;;;;;;;;;;5013311;28;20091;-84
2023/11/04 01:03:52;;;;;;;3.85;2.03;;;;;;;;;;5014616;28;20036;-83
2023/11/04 01:06:38;;;;;;;4.10;1.60;;;;;;;;;;5011697;28;20080;-84
2023/11/04 01:09:23;;;;;;;4.60;1.35;;;;;;;;;;5012781;28;20026;-83
2023/11/04 01:12:08;;;;;;;3.40;1.60;;;;;;;;;;5013961;28;20025;-84
2023/11/04 01:14:53;;;;;;;2.83;1.77;;;;;;;;;;5001251;28;20029;-84
2023/11/04 01:17:38;;;;;;;2.80;1.40;;;;;;;;;;5013026;28;20392;-84
2023/11/04 01:20:24;;;;;;;5.63;1.85;;;;;;;;;;5015971;28;20029;-84
2023/11/04 01:23:09;;;;;;;3.85;1.90;;;;;;;;;;5015688;28;20036;-83
2023/11/04 01:25:54;;;;;;;4.65;1.58;;;;;;;;;;5012881;28;20026;-83
2023/11/04 01:28:39;;;;;;;3.05;1.35;;;;;;;;;;5014302;28;20051;-82
2023/11/04 01:31:25;;;;;;;1.23;1.13;;;;;;;;;;5010830;28;20037;-82
2023/11/04 01:34:10;;;;;;;3.55;1.50;;;;;;;;;;5013990;28;20032;-81
2023/11/04 01:36:55;;;;;;;4.03;1.67;;;;;;;;;;5018015;28;20025;-82
2023/11/04 01:39:41;;;;;;;3.67;1.60;;;;;;;;;;5010603;28;20038;-81
2023/11/04 01:42:27;;;;;;;4.22;1.98;;;;;;;;;;5011675;28;20403;-81
2023/11/04 01:45:12;;;;;;;2.92;1.60;;;;;;;;;;5018336;28;20033;-81
2023/11/04 01:47:58;;;;;;;4.05;1.88;;;;;;;;;;5017248;28;20518;-82
2023/11/04 01:50:43;;;;;;;3.50;1.40;;;;;;;;;;5018055;28;20072;-81
2023/11/04 01:53:28;;;;;;;6.13;2.83;;;;;;;;;;5013714;28;20040;-81
2023/11/04 01:56:17;;;;;;;2.17;1.60;;;;;;;;;;5003759;28;20632;-80
2023/11/04 01:59:03;;;;;;;2.70;1.45;;;;;;;;;;5015544;28;20021;-81
2023/11/04 02:01:48;;;;;;;6.28;1.45;;;;;;;;;;5021648;28;20580;-81
2023/11/04 02:04:34;;;;;;;4.13;1.67;;;;;;;;;;5020094;28;20029;-81
2023/11/04 02:07:19;;;;;;;4.70;2.03;;;;;;;;;;5018867;28;20467;-80
2023/11/04 02:10:06;;;;;;;2.72;1.45;;;;;;;;;;5017540;28;20026;-81
2023/11/04 02:12:51;;;;;;;1.92;1.30;;;;;;;;;;5025244;28;20033;-82
2023/11/04 02:15:37;;;;;;;2.67;1.73;;;;;;;;;;5026345;28;20032;-82
2023/11/04 02:18:22;;;;;;;3.83;1.73;;;;;;;;;;5018807;28;20024;-81
2023/11/04 02:21:07;;;;;;;2.58;1.67;;;;;;;;;;5019464;28;20108;-82
2023/11/04 02:23:52;;;;;;;2.55;1.40;;;;;;;;;;5027717;28;20033;-80
2023/11/04 02:26:38;;;;;;;3.53;2.00;;;;;;;;;;5018628;28;20625;-80
2023/11/04 02:29:23;;;;;;;2.83;1.60;;;;;;;;;;5010851;28;20076;-81
2023/11/04 02:32:08;;;;;;;2.28;1.60;;;;;;;;;;5016955;28;20503;-81
2023/11/04 02:34:53;;;;;;;3.05;1.75;;;;;;;;;;5010026;28;20598;-81
2023/11/04 02:37:39;;;;;;;3.00;1.77;;;;;;;;;;5015330;28;20456;-80
2023/11/04 02:40:24;;;;;;;6.15;2.17;;;;;;;;;;5016491;28;20048;-80
2023/11/04 02:43:09;;;;;;;3.60;1.80;;;;;;;;;;5008481;28;20025;-81
2023/11/04 02:45:54;;;;;;;6.85;1.63;;;;;;;;;;5017949;28;20101;-82
2023/11/04 02:48:40;;;;;;;3.03;1.10;;;;;;;;;;5012998;28;20029;-81
2023/11/04 02:51:25;;;;;;;7.20;2.35;;;;;;;;;;5018789;28;20478;-82
2023/11/04 02:54:10;;;;;;;4.40;1.70;;;;;;;;;;5012126;28;20028;-81
2023/11/04 02:56:55;;;;;;;2.45;1.75;;;;;;;;;;5008698;28;20033;-81
2023/11/04 02:59:41;;;;;;;4.72;2.13;;;;;;;;;;5013747;28;20439;-81
2023/11/04 03:02:26;;;;;;;2.40;1.52;;;;;;;;;;5015843;28;20045;-81
2023/11/04 03:05:11;;;;;;;3.00;1.80;;;;;;;;;;5021932;28;20104;-81
2023/11/04 03:07:56;;;;;;;7.25;2.28;;;;;;;;;;5015328;28;20174;-81
2023/11/04 03:10:42;;;;;;;3.92;1.77;;;;;;;;;;5017195;28;20028;-81
2023/11/04 03:13:30;;;;;;;4.13;2.08;;;;;;;;;;5010348;28;20752;-82
2023/11/04 03:16:19;;;;;;;4.50;1.52;;;;;;;;;;5015773;28;20026;-82
2023/11/04 03:19:04;;;;;;;3.25;1.77;;;;;;;;;;5006270;28;20431;-81
2023/11/04 03:21:50;;;;;;;3.13;1.98;;;;;;;;;;4998344;28;20061;-81
2023/11/04 03:24:36;;;;;;;2.53;1.65;;;;;;;;;;5016805;28;20467;-81
2023/11/04 03:27:21;;;;;;;3.70;1.77;;;;;;;;;;5009290;28;20051;-82
2023/11/04 03:30:08;;;;;;;5.57;2.00;;;;;;;;;;5017130;28;24782;-82
2023/11/04 03:32:53;;;;;;;4.70;1.65;;;;;;;;;;5015525;28;20346;-81
2023/11/04 03:35:38;;;;;;;4.03;1.80;;;;;;;;;;5009499;28;20035;-81
2023/11/04 03:38:23;;;;;;;2.72;1.58;;;;;;;;;;5015182;28;20021;-81
2023/11/04 03:41:09;;;;;;;3.47;1.77;;;;;;;;;;5015608;28;20033;-80
2023/11/04 03:44:00;;;;;;;5.07;1.90;;;;;;;;;;5015290;28;20037;-81
2023/11/04 03:46:49;;;;;;;5.40;2.58;;;;;;;;;;5011163;28;20048;-82
2023/11/04 03:49:34;;;;;;;4.22;1.98;;;;;;;;;;5009225;28;20013;-82
2023/11/04 03:52:19;;;;;;;4.50;1.90;;;;;;;;;;5001944;28;20053;-81
2023/11/04 03:55:05;;;;;;;5.15;2.28;;;;;;;;;;5018082;28;20673;-82
2023/11/04 04:01:18;;;;;;;4.05;2.00;;;;;;;;;;5016568;28;20075;-81
2023/11/04 04:04:03;;;;;;;3.15;1.92;;;;;;;;;;5017186;28;20188;-79
2023/11/04 04:06:52;;;;;;;5.20;1.58;;;;;;;;;;5022765;28;20163;-81
2023/11/04 04:09:37;;;;;;;2.28;1.45;;;;;;;;;;5015937;28;20025;-81
2023/11/04 04:12:22;;;;;;;2.08;1.80;;;;;;;;;;5009111;28;20030;-80
2023/11/04 04:15:10;;;;;;;2.17;1.50;;;;;;;;;;5013843;28;20044;-80
2023/11/04 04:17:55;;;;;;;2.22;1.63;;;;;;;;;;5020166;28;20017;-80
2023/11/04 04:20:40;;;;;;;2.40;1.42;;;;;;;;;;5013747;28;20025;-80
2023/11/04 04:23:26;;;;;;;4.95;2.00;;;;;;;;;;5016079;28;20087;-80
2023/11/04 04:26:23;;;;;;;4.40;2.17;;;;;;;;;;5015028;28;20037;-80
2023/11/04 04:29:08;;;;;;;2.08;1.65;;;;;;;;;;5010371;28;20022;-80
2023/11/04 04:31:54;;;;;;;3.78;1.77;;;;;;;;;;5013059;28;20021;-80
2023/11/04 04:34:39;;;;;;;3.47;1.90;;;;;;;;;;5014466;28;20029;-80
2023/11/04 04:37:25;;;;;;;4.35;2.47;;;;;;;;;;5015128;28;20052;-80
2023/11/04 04:40:10;;;;;;;3.88;1.70;;;;;;;;;;5012267;28;20040;-80
2023/11/04 04:42:55;;;;;;;4.03;2.30;;;;;;;;;;5014877;28;20033;-82
2023/11/04 04:45:41;;;;;;;5.20;1.80;;;;;;;;;;5009023;28;20053;-81
2023/11/04 04:48:26;;;;;;;5.05;2.45;;;;;;;;;;5015496;28;20300;-83
2023/11/04 04:51:11;;;;;;;3.67;1.92;;;;;;;;;;5016748;28;20033;-83
2023/11/04 04:53:59;;;;;;;4.88;2.10;;;;;;;;;;5006780;28;20021;-83
2023/11/04 04:56:46;;;;;;;3.17;1.80;;;;;;;;;;5014999;28;20160;-83
2023/11/04 04:59:34;;;;;;;3.05;1.70;;;;;;;;;;5015855;28;20116;-83
2023/11/04 05:02:19;;;;;;;5.30;1.80;;;;;;;;;;5009179;28;20022;-83
2023/11/04 05:05:10;;;;;;;4.32;1.73;;;;;;;;;;5007221;28;20025;-82
2023/11/04 05:07:55;;;;;;;2.72;1.48;;;;;;;;;;5003820;28;20037;-82
2023/11/04 05:10:40;;;;;;;2.72;1.70;;;;;;;;;;5015108;28;20025;-81
2023/11/04 05:13:28;;;;;;;3.22;1.67;;;;;;;;;;5014678;28;20021;-81
2023/11/04 05:16:13;;;;;;;2.42;1.23;;;;;;;;;;5010000;28;20081;-81
2023/11/04 05:18:58;;;;;;;3.55;1.88;;;;;;;;;;5016023;28;20091;-80
2023/11/04 05:21:44;;;;;;;4.90;1.60;;;;;;;;;;5014873;28;20025;-80
2023/11/04 05:24:29;;;;;;;3.33;1.73;;;;;;;;;;5019470;28;20035;-80
2023/11/04 05:27:14;;;;;;;6.70;1.63;;;;;;;;;;5003729;28;20105;-81
2023/11/04 05:30:00;;;;;;;2.42;1.70;;;;;;;;;;5012384;28;20025;-80
2023/11/04 05:32:45;;;;;;;2.28;1.40;;;;;;;;;;5007604;28;20100;-80
2023/11/04 05:35:30;;;;;;;2.42;1.38;;;;;;;;;;5005654;28;20521;-80
2023/11/04 05:38:17;;;;;;;3.78;1.70;;;;;;;;;;5014586;28;20025;-80
2023/11/04 05:41:02;;;;;;;3.25;1.23;;;;;;;;;;5015003;28;20668;-80
2023/11/04 05:43:48;;;;;;;4.55;1.42;;;;;;;;;;5015903;28;20083;-80
2023/11/04 05:46:35;;;;;;;3.72;1.60;;;;;;;;;;5016551;28;20048;-80
2023/11/04 05:49:22;;;;;;;2.17;1.25;;;;;;;;;;5010448;28;20025;-80
2023/11/04 05:52:08;;;;;;;3.05;1.42;;;;;;;;;;5014560;28;20068;-79
2023/11/04 05:54:53;;;;;;;2.78;1.40;;;;;;;;;;5012216;28;20069;-78
2023/11/04 05:57:38;;;;;;;4.03;1.50;;;;;;;;;;5014710;28;20056;-81
2023/11/04 06:00:24;;;;;;;2.75;1.50;;;;;;;;;;5012581;28;20095;-79
2023/11/04 06:03:09;;;;;;;1.90;1.20;;;;;;;;;;5016293;28;20555;-81
2023/11/04 06:05:55;;;;;;;2.08;1.10;;;;;;;;;;5015690;28;20056;-81
2023/11/04 06:08:40;;;;;;;2.80;1.55;;;;;;;;;;5013980;28;20021;-79
2023/11/04 06:11:26;;;;;;;4.22;1.67;;;;;;;;;;5016142;28;20060;-79
2023/11/04 06:14:11;;;;;;;3.35;1.50;;;;;;;;;;5014085;28;20017;-80
2023/11/04 06:16:56;;;;;;;3.17;1.38;;;;;;;;;;5012908;28;20025;-80
2023/11/04 06:19:41;;;;;;;2.50;1.15;;;;;;;;;;5008434;28;20033;-80
2023/11/04 06:22:27;;;;;;;2.08;1.42;;;;;;;;;;5016162;28;20518;-80
2023/11/04 06:25:12;;;;;;;2.97;1.48;;;;;;;;;;5011718;28;20072;-80
2023/11/04 06:27:57;;;;;;;2.00;1.27;;;;;;;;;;5014454;28;20022;-80
2023/11/04 06:30:42;;;;;;;2.60;1.42;;;;;;;;;;4999871;28;20034;-80
2023/11/04 06:33:28;;;;;;;3.88;1.70;;;;;;;;;;5016015;28;20045;-80
2023/11/04 06:36:13;;;;;;;5.13;1.50;;;;;;;;;;5016124;28;20060;-80
2023/11/04 06:38:58;;;;;;;2.78;1.50;;;;;;;;;;5005804;28;20129;-80
2023/11/04 06:41:43;;;;;;;3.35;1.63;;;;;;;;;;5017601;28;20071;-80
2023/11/04 06:44:29;;;;;;;2.72;1.83;;;;;;;;;;5012489;28;20357;-80
2023/11/04 06:47:14;;;;;;;5.55;1.48;;;;;;;;;;5017049;28;20399;-80
2023/11/04 06:49:59;;;;;;;4.45;1.55;;;;;;;;;;5017575;28;20064;-78
2023/11/04 06:52:44;;;;;;;1.88;1.48;;;;;;;;;;5013546;28;20033;-78
2023/11/04 06:55:32;;;;;;;3.20;1.77;;;;;;;;;;5015727;28;20086;-79
2023/11/04 06:58:17;;;;;;;2.38;1.52;;;;;;;;;;5017632;28;20030;-79
2023/11/04 07:01:02;;;;;;;4.07;1.73;;;;;;;;;;5007531;28;20038;-79
2023/11/04 07:03:48;;;;;;;3.20;1.77;;;;;;;;;;5011939;28;20029;-79
2023/11/04 07:06:33;;;;;;;4.60;2.13;;;;;;;;;;5004030;28;20037;-78
2023/11/04 07:09:18;;;;;;;5.70;2.10;;;;;;;;;;5030005;28;20112;-81
2023/11/04 07:12:04;;;;;;;5.25;2.03;;;;;;;;;;5015134;28;20030;-80
2023/11/04 07:14:49;;;;;;;2.88;1.83;;;;;;;;;;5015234;28;20028;-79
2023/11/04 07:17:35;;;;;;;2.35;1.67;;;;;;;;;;5015847;28;20021;-80
2023/11/04 07:20:20;;;;;;;4.55;2.42;;;;;;;;;;5016387;28;21313;-80
2023/11/04 07:23:07;;;;;;;3.08;1.88;;;;;;;;;;5011862;28;20018;-80
2023/11/04 07:25:52;;;;;;;3.28;1.80;;;;;;;;;;5018511;28;20057;-80
2023/11/04 07:28:38;;;;;;;4.00;1.70;;;;;;;;;;5008388;28;20017;-81
2023/11/04 07:31:23;;;;;;;7.20;2.25;;;;;;;;;;5013542;28;20387;-81
2023/11/04 07:34:08;;;;;;;2.33;1.33;;;;;;;;;;5019033;28;20029;-82
2023/11/04 07:36:55;;;;;;;3.67;1.83;;;;;;;;;;5013084;28;20494;-80
2023/11/04 07:39:40;;;;;;;8.07;2.30;;;;;;;;;;5023357;28;20030;-82
2023/11/04 07:42:25;;;;;;;4.90;2.38;;;;;;;;;;5017488;28;20030;-83
2023/11/04 07:45:11;;;;;;;3.50;2.10;;;;;;;;;;5017983;28;20049;-83
2023/11/04 07:47:56;;;;;;;3.45;1.70;;;;;;;;;;5010835;28;20041;-82
2023/11/04 07:50:41;;;;;;;2.85;1.90;;;;;;;;;;5012806;28;20811;-82
2023/11/04 07:53:27;;;;;;;4.60;1.70;;;;;;;;;;5013303;28;20033;-83
2023/11/04 07:56:12;;;;;;;4.22;2.08;;;;;;;;;;5015062;28;20112;-80
2023/11/04 07:58:58;;;;;;;3.63;1.63;;;;;;;;;;5014889;28;20034;-84
2023/11/04 08:01:43;;;;;;;4.28;1.98;;;;;;;;;;5000368;28;20034;-80
2023/11/04 08:04:28;;;;;;;4.80;2.10;;;;;;;;;;5014362;28;20101;-81
2023/11/04 08:07:14;;;;;;;5.88;1.60;;;;;;;;;;5013528;28;20017;-84
2023/11/04 08:10:00;;;;;;;2.58;1.50;;;;;;;;;;5005981;28;20025;-83
2023/11/04 08:12:45;;;;;;;4.25;1.63;;;;;;;;;;5019679;28;20087;-85
2023/11/04 08:15:30;;;;;;;2.83;1.60;;;;;;;;;;5009759;28;20064;-84
2023/11/04 08:18:16;;;;;;;3.78;1.40;;;;;;;;;;5014430;28;20120;-83
2023/11/04 08:21:02;;;;;;;2.15;1.20;;;;;;;;;;5001060;28;20028;-83
2023/11/04 08:23:47;;;;;;;2.60;1.38;;;;;;;;;;5007966;28;20116;-83
2023/11/04 08:26:32;;;;;;;3.38;1.27;;;;;;;;;;5010676;28;20030;-84
2023/11/04 08:29:18;;;;;;;2.03;1.27;;;;;;;;;;5009216;28;20032;-84
2023/11/04 08:32:03;;;;;;;3.38;1.70;;;;;;;;;;5009100;28;20033;-85
2023/11/04 08:34:48;;;;;;;4.78;1.33;;;;;;;;;;5010974;28;20032;-84
2023/11/04 08:37:34;;;;;;;4.07;1.40;;;;;;;;;;5018427;28;20029;-87
2023/11/04 08:40:19;;;;;;;2.22;1.30;;;;;;;;;;5014574;28;20036;-90
2023/11/04 08:43:05;;;;;;;2.97;1.20;;;;;;;;;;5014427;28;20029;-95
2023/11/04 08:45:51;;;;;;;2.95;1.00;;;;;;;;;;5003790;28;20036;-90
2023/11/04 08:48:37;;;;;;;3.97;1.30;;;;;;;;;;5010883;28;20037;-85
2023/11/04 08:51:22;;;;;;;3.30;1.65;;;;;;;;;;5007235;28;20044;-85
2023/11/04 08:54:09;;;;;;;4.18;1.20;;;;;;;;;;5013653;28;20044;-86
2023/11/04 08:56:55;;;;;;;3.47;1.35;;;;;;;;;;5015994;28;20043;-85
2023/11/04 08:59:40;;;;;;;7.00;1.38;;;;;;;;;;5007609;28;20040;-86
2023/11/04 09:02:26;;;;;;;2.58;1.58;;;;;;;;;;5012947;28;20029;-85
2023/11/04 09:05:11;;;;;;;3.22;1.30;;;;;;;;;;5012684;28;20392;-86
2023/11/04 09:07:57;;;;;;;2.45;1.48;;;;;;;;;;5014207;28;20095;-84
2023/11/04 09:10:42;;;;;;;4.40;1.55;;;;;;;;;;5015519;28;20021;-85
2023/11/04 09:13:27;;;;;;;3.17;1.10;;;;;;;;;;5000740;28;20017;-86
2023/11/04 09:16:13;;;;;;;3.85;1.40;;;;;;;;;;5011564;28;20037;-84
2023/11/04 09:18:59;;;;;;;3.85;1.40;;;;;;;;;;5015629;28;20036;-86
2023/11/04 09:21:44;;;;;;;4.47;1.65;;;;;;;;;;5009032;28;20079;-86
2023/11/04 09:24:30;;;;;;;1.48;1.30;;;;;;;;;;5015188;28;20100;-85
2023/11/04 09:27:15;;;;;;;4.68;1.92;;;;;;;;;;5005995;28;20050;-86
2023/11/04 09:30:00;;;;;;;1.80;1.30;;;;;;;;;;5011792;28;20106;-86
2023/11/04 09:32:45;;;;;;;4.35;1.67;;;;;;;;;;5014117;28;20028;-87
2023/11/04 09:35:31;;;;;;;4.47;1.33;;;;;;;;;;5009186;28;20025;-86
2023/11/04 09:38:16;;;;;;;2.25;1.27;;;;;;;;;;5028836;28;20052;-84
2023/11/04 09:41:01;;;;;;;3.72;1.25;;;;;;;;;;5014620;28;20033;-83
2023/11/04 09:43:46;;;;;;;3.40;1.30;;;;;;;;;;5015074;28;20033;-84
2023/11/04 09:46:32;;;;;;;2.58;1.52;;;;;;;;;;5011366;28;20041;-85
2023/11/04 09:49:18;;;;;;;2.03;1.13;;;;;;;;;;5015702;28;20058;-82
2023/11/04 09:52:05;;;;;;;4.60;1.75;;;;;;;;;;5008234;28;20068;-85
2023/11/04 09:54:52;;;;;;;2.72;1.50;;;;;;;;;;5013590;28;20038;-84
2023/11/04 09:57:37;;;;;;;1.30;1.20;;;;;;;;;;5006281;28;20091;-83
2023/11/04 10:00:23;;;;;;;4.15;1.25;;;;;;;;;;5024592;28;20108;-84
2023/11/04 10:03:08;;;;;;;2.65;1.13;;;;;;;;;;5015775;28;20063;-86
2023/11/04 10:05:54;;;;;;;3.75;1.02;;;;;;;;;;5016680;28;20096;-85
2023/11/04 10:08:39;;;;;;;0.82;0.80;;;;;;;;;;5015059;28;20048;-85
2023/11/04 10:11:25;;;;;;;1.52;1.05;;;;;;;;;;5014386;28;20041;-85
2023/11/04 10:14:10;;;;;;;5.50;1.10;;;;;;;;;;5016742;28;20033;-84
2023/11/04 10:16:55;;;;;;;1.40;0.90;;;;;;;;;;4994902;28;20080;-88
2023/11/04 10:19:41;;;;;;;1.55;0.80;;;;;;;;;;5015618;28;20029;-86
2023/11/04 10:22:26;;;;;;;2.17;1.25;;;;;;;;;;5027203;28;20033;-85
2023/11/04 10:25:11;;;;;;;3.60;1.73;;;;;;;;;;5023016;28;20022;-86
2023/11/04 10:27:56;;;;;;;2.33;1.00;;;;;;;;;;5020101;28;20029;-83
2023/11/04 10:30:42;;;;;;;1.98;1.17;;;;;;;;;;5011223;28;20034;-85
2023/11/04 10:33:28;;;;;;;0.95;0.70;;;;;;;;;;5017976;28;20108;-85
2023/11/04 10:36:13;;;;;;;2.13;1.10;;;;;;;;;;5011578;28;20025;-85
2023/11/04 10:39:03;;;;;;;1.40;0.77;;;;;;;;;;5006639;28;20542;-86
2023/11/04 10:41:57;;;;;;;1.50;0.90;;;;;;;;;;5018833;28;20029;-85
2023/11/04 10:44:46;;;;;;;1.77;0.90;;;;;;;;;;5008848;28;20025;-86
2023/11/04 10:47:39;;;;;;;4.55;1.58;;;;;;;;;;5007347;28;20046;-86
2023/11/04 10:50:26;;;;;;;2.83;0.88;;;;;;;;;;5015899;28;20623;-86
2023/11/04 10:53:22;;;;;;;1.08;0.98;;;;;;;;;;5014109;28;20369;-87
2023/11/04 10:56:10;;;;;;;1.67;1.10;;;;;;;;;;5018049;28;20036;-85
2023/11/04 10:58:58;;;;;;;1.70;0.90;;;;;;;;;;5018631;28;20079;-85
2023/11/04 11:01:46;;;;;;;0.82;0.70;;;;;;;;;;5013551;28;20499;-86
2023/11/04 11:04:33;;;;;;;1.58;1.00;;;;;;;;;;5012382;28;20537;-84
2023/11/04 11:07:19;;;;;;;1.02;0.90;;;;;;;;;;5017334;28;20057;-86
2023/11/04 11:10:05;;;;;;;2.33;1.00;;;;;;;;;;5018298;28;20061;-86
2023/11/04 11:12:56;;;;;;;2.70;0.90;;;;;;;;;;4998841;28;20021;-87
2023/11/04 11:15:41;;;;;;;2.28;0.90;;;;;;;;;;5015361;28;20516;-87
2023/11/04 11:18:30;;;;;;;2.10;0.90;;;;;;;;;;5017009;28;20075;-87
2023/11/04 11:21:15;;;;;;;2.95;1.33;;;;;;;;;;5007245;28;20644;-87
2023/11/04 11:24:08;;;;;;;2.17;0.90;;;;;;;;;;5024450;28;20029;-86
2023/11/04 11:26:57;;;;;;;1.40;0.80;;;;;;;;;;5009872;28;20017;-86
2023/11/04 11:29:46;;;;;;;1.58;1.25;;;;;;;;;;5015722;28;20017;-87
2023/11/04 11:32:34;;;;;;;1.90;1.00;;;;;;;;;;5019496;28;20045;-87
2023/11/04 11:35:20;;;;;;;2.53;1.00;;;;;;;;;;5013149;28;20105;-89
2023/11/04 11:38:05;;;;;;;3.13;1.10;;;;;;;;;;5020309;28;20025;-86
2023/11/04 11:40:51;;;;;;;1.40;0.90;;;;;;;;;;5020672;28;20081;-89
2023/11/04 11:43:36;;;;;;;1.98;0.82;;;;;;;;;;5013499;28;20036;-89
2023/11/04 11:46:21;;;;;;;1.15;0.80;;;;;;;;;;5019528;28;20423;-89
2023/11/04 11:49:07;;;;;;;1.60;1.10;;;;;;;;;;5010654;28;20064;-88
2023/11/04 11:51:53;;;;;;;1.45;0.80;;;;;;;;;;5005772;28;20026;-88
2023/11/04 11:54:39;;;;;;;2.08;1.10;;;;;;;;;;5017190;28;20083;-89
2023/11/04 11:57:24;;;;;;;1.23;0.65;;;;;;;;;;5016370;28;20024;-89
2023/11/04 12:00:12;;;;;;;0.75;0.70;;;;;;;;;;5016770;28;20025;-89
2023/11/04 12:02:58;;;;;;;1.02;0.80;;;;;;;;;;5007790;28;20713;-89
2023/11/04 12:05:44;;;;;;;1.13;0.73;;;;;;;;;;5027864;28;20033;-87
2023/11/04 12:08:30;;;;;;;2.17;0.80;;;;;;;;;;5036988;28;20042;-88
2023/11/04 12:11:17;;;;;;;2.25;1.20;;;;;;;;;;5035554;28;20023;-91
2023/11/04 12:14:02;;;;;;;1.55;1.02;;;;;;;;;;5043543;28;20032;-90
2023/11/04 12:16:47;;;;;;;1.75;0.80;;;;;;;;;;5048621;28;20013;-89
2023/11/04 12:19:33;;;;;;;1.15;0.60;;;;;;;;;;5046439;28;20022;-87
2023/11/04 12:22:18;;;;;;;1.10;0.98;;;;;;;;;;5022382;28;20037;-93
2023/11/04 12:25:05;;;;;;;1.23;0.90;;;;;;;;;;5020162;28;20060;-91
2023/11/04 12:27:50;;;;;;;1.00;0.70;;;;;;;;;;5001112;28;20030;-92
2023/11/04 12:30:36;;;;;;;1.25;1.08;;;;;;;;;;5008499;28;20120;-92
2023/11/04 12:33:22;;;;;;;1.42;0.77;;;;;;;;;;5026927;28;20495;-90
2023/11/04 12:36:08;;;;;;;3.13;0.95;;;;;;;;;;5026134;28;20380;-92
2023/11/04 12:38:53;;;;;;;1.35;0.90;;;;;;;;;;5018172;28;20030;-91
2023/11/04 12:41:39;;;;;;;1.63;0.80;;;;;;;;;;5024941;28;20037;-92
2023/11/04 12:44:24;;;;;;;1.30;1.00;;;;;;;;;;5036689;28;20028;-91
2023/11/04 12:47:09;;;;;;;2.10;1.08;;;;;;;;;;5029563;28;20120;-91
2023/11/04 12:49:55;;;;;;;4.00;1.40;;;;;;;;;;5019840;28;20022;-91
2023/11/04 12:52:44;;;;;;;3.13;1.38;;;;;;;;;;5013243;28;20044;-91
2023/11/04 12:55:29;;;;;;;4.43;1.50;;;;;;;;;;5016224;28;20067;-92
2023/11/04 12:58:15;;;;;;;2.58;1.48;;;;;;;;;;5011493;28;20041;-87
2023/11/04 13:01:00;;;;;;;2.47;1.33;;;;;;;;;;5017365;28;20064;-88
2023/11/04 13:03:46;;;;;;;1.65;1.02;;;;;;;;;;5002058;28;20028;-91
2023/11/04 13:06:31;;;;;;;2.20;1.08;;;;;;;;;;5016706;28;20903;-89
2023/11/04 13:09:17;;;;;;;1.90;1.10;;;;;;;;;;5125256;23;20036;-86
2023/11/04 13:12:19;;;;;;;2.78;0.88;;;;;;;;;;5050988;28;20064;-91
2023/11/04 13:15:08;;;;;;;3.35;0.82;;;;;;;;;;5072816;28;20102;-90
2023/11/04 13:18:15;;;;;;;3.55;1.20;;;;;;;;;;5033004;28;20123;-91
2023/11/04 13:21:06;;;;;;;1.15;0.95;;;;;;;;;;5066134;28;20066;-89
2023/11/04 13:23:51;;;;;;;1.33;0.85;;;;;;;;;;5072726;28;20114;-90
2023/11/04 13:26:46;;;;;;;1.48;0.90;;;;;;;;;;5045718;28;20506;-93
2023/11/04 13:29:30;;;;;;;2.90;1.60;;;;;;;;;;5087180;28;20129;-90
2023/11/04 13:32:15;;;;;;;26.52;6.85;;;;;;;;;;5062124;28;20501;-80
2023/11/04 13:35:00;;;;;;;5.45;1.55;;;;;;;;;;5067945;28;20032;-79
2023/11/04 13:37:45;;;;;;;2.20;1.00;;;;;;;;;;5068819;28;20043;-80
2023/11/04 13:40:31;;;;;;;2.03;0.95;;;;;;;;;;5077836;28;20028;-77
2023/11/04 13:43:16;;;;;;;3.85;0.90;;;;;;;;;;5068669;28;20089;-77
2023/11/04 13:46:01;;;;;;;1.35;0.75;;;;;;;;;;5074802;28;20130;-79
2023/11/04 13:48:46;;;;;;;4.60;1.58;;;;;;;;;;5071098;28;20024;-79
2023/11/04 13:51:35;;;;;;;1.15;1.00;;;;;;;;;;5068188;28;20028;-81
2023/11/04 13:54:20;;;;;;;4.90;1.30;;;;;;;;;;5067646;28;20021;-81
2023/11/04 13:57:08;;;;;;;2.20;1.42;;;;;;;;;;5074913;28;20032;-91
2023/11/04 13:59:53;;;;;;;2.55;0.82;;;;;;;;;;5077802;28;20032;-92
2023/11/04 14:02:39;;;;;;;1.35;0.90;;;;;;;;;;5070994;28;20024;-90
2023/11/04 14:05:24;;;;;;;1.63;0.90;;;;;;;;;;5071709;28;20020;-93
2023/11/04 14:08:10;;;;;;;1.35;1.10;;;;;;;;;;5074784;28;20024;-90
2023/11/04 14:10:55;;;;;;;1.48;0.95;;;;;;;;;;5053061;28;20060;-90
2023/11/04 14:13:41;;;;;;;1.73;1.13;;;;;;;;;;5056041;28;20509;-90
2023/11/04 14:16:27;;;;;;;2.10;0.90;;;;;;;;;;5049131;28;20040;-91
2023/11/04 14:19:12;;;;;;;3.72;1.35;;;;;;;;;;5056317;28;20170;-89
2023/11/04 14:21:57;;;;;;;3.10;1.27;;;;;;;;;;5053542;28;20053;-89
2023/11/04 14:24:42;;;;;;;2.88;1.13;;;;;;;;;;5053307;28;20048;-87
2023/11/04 14:27:27;;;;;;;2.80;1.55;;;;;;;;;;5053919;28;20013;-87
2023/11/04 14:30:13;;;;;;;1.77;1.40;;;;;;;;;;5052645;28;20086;-86
2023/11/04 14:32:58;;;;;;;2.30;1.20;;;;;;;;;;5051217;28;20017;-87
2023/11/04 14:35:44;;;;;;;1.60;1.20;;;;;;;;;;5061083;28;20032;-85
2023/11/04 14:38:29;;;;;;;3.20;1.50;;;;;;;;;;5050923;28;20155;-89
2023/11/04 14:41:17;;;;;;;3.05;1.95;;;;;;;;;;5052929;28;20025;-86
2023/11/04 14:44:03;;;;;;;2.45;1.65;;;;;;;;;;5051201;28;20028;-87
2023/11/04 14:46:49;;;;;;;2.63;1.73;;;;;;;;;;5055650;28;20119;-85
2023/11/04 14:49:34;;;;;;;4.50;1.90;;;;;;;;;;5052945;28;20382;-83
2023/11/04 14:52:22;;;;;;;2.92;1.00;;;;;;;;;;5053484;28;20064;-82
2023/11/04 14:55:07;;;;;;;3.45;1.23;;;;;;;;;;5051879;28;20035;-82
2023/11/04 14:57:53;;;;;;;1.70;1.02;;;;;;;;;;5065350;28;20040;-84
2023/11/04 15:00:38;;;;;;;1.40;1.00;;;;;;;;;;5049027;28;20035;-83
2023/11/04 15:03:23;;;;;;;1.15;1.05;;;;;;;;;;5054269;28;20493;-85
2023/11/04 15:06:08;;;;;;;2.45;1.05;;;;;;;;;;5050046;28;20116;-83
2023/11/04 15:08:54;;;;;;;3.40;1.17;;;;;;;;;;5048463;28;20044;-83
2023/11/04 15:11:39;;;;;;;4.68;1.20;;;;;;;;;;5051552;28;20032;-83
2023/11/04 15:14:24;;;;;;;2.55;1.00;;;;;;;;;;5045461;28;20036;-84
2023/11/04 15:17:10;;;;;;;5.35;2.88;;;;;;;;;;5053434;28;20075;-86
2023/11/04 15:19:56;;;;;;;2.80;1.38;;;;;;;;;;5053436;28;20029;-85
2023/11/04 15:22:41;;;;;;;3.72;1.98;;;;;;;;;;5046390;28;20033;-86
2023/11/04 15:25:26;;;;;;;5.78;1.92;;;;;;;;;;5053710;28;20016;-86
2023/11/04 15:28:12;;;;;;;3.20;1.40;;;;;;;;;;5057165;28;20016;-86
2023/11/04 15:30:57;;;;;;;3.85;1.90;;;;;;;;;;5054171;28;20043;-85
2023/11/04 15:33:43;;;;;;;4.40;2.25;;;;;;;;;;5053566;28;20028;-85
2023/11/04 15:36:28;;;;;;;4.20;2.38;;;;;;;;;;5049735;28;20486;-86
2023/11/04 15:39:14;;;;;;;5.10;2.47;;;;;;;;;;5054366;28;20466;-85
2023/11/04 15:41:59;;;;;;;2.53;1.58;;;;;;;;;;5053132;28;20482;-85
2023/11/04 15:44:45;;;;;;;2.25;1.70;;;;;;;;;;5052956;28;20029;-87
2023/11/04 15:47:30;;;;;;;2.25;1.40;;;;;;;;;;5054547;28;20052;-87
2023/11/04 15:50:15;;;;;;;2.80;1.50;;;;;;;;;;5051764;28;20029;-83
2023/11/04 15:53:01;;;;;;;0.90;0.90;;;;;;;;;;5056381;28;20090;-84
2023/11/04 15:55:46;;;;;;;2.65;1.30;;;;;;;;;;5051532;28;20016;-83
2023/11/04 15:58:31;;;;;;;2.28;1.30;;;;;;;;;;5064229;28;20036;-82
2023/11/04 16:01:17;;;;;;;1.88;1.65;;;;;;;;;;5050370;28;20036;-85
2023/11/04 16:04:02;;;;;;;2.90;1.50;;;;;;;;;;5064282;28;20017;-83
2023/11/04 16:06:48;;;;;;;4.90;1.55;;;;;;;;;;5048299;28;20494;-85
2023/11/04 16:09:33;;;;;;;2.60;1.50;;;;;;;;;;5036196;28;20044;-86
2023/11/04 16:12:18;;;;;;;1.85;1.10;;;;;;;;;;5065340;28;20382;-86
2023/11/04 16:15:06;;;;;;;2.55;1.90;;;;;;;;;;5035404;28;20029;-84
2023/11/04 16:17:51;;;;;;;1.95;1.00;;;;;;;;;;5051171;28;20068;-88
2023/11/04 16:20:37;;;;;;;2.72;1.20;;;;;;;;;;5043252;28;20575;-85
2023/11/04 16:23:22;;;;;;;1.95;0.93;;;;;;;;;;5049725;28;20610;-84
2023/11/04 16:26:14;;;;;;;0.80;0.80;;;;;;;;;;5054430;28;20449;-90
2023/11/04 16:28:59;;;;;;;1.80;0.90;;;;;;;;;;5053301;28;20093;-82
2023/11/04 16:31:44;;;;;;;2.53;1.23;;;;;;;;;;5056666;28;20103;-87
2023/11/04 16:34:29;;;;;;;1.30;0.80;;;;;;;;;;5055043;28;20694;-89
2023/11/04 16:37:15;;;;;;;2.15;1.02;;;;;;;;;;5048983;28;20025;-89